Cancun, Mexico

12:59 AM EST on February 14, 2016 (GMT -0500)
Cancun | | Change Station
CLOSE
Current Station
Personal Weather Station
Location: Cancun, QUINTANA ROO
Elevation: 40 ft
Nearby Weather Stations

Elev 40 ft 21.15 °N, 86.84 °W | Updated 6 minutes ago

Scattered Clouds
Scattered Clouds
73.9 °F
Feels Like 76 °F
N
3.0
Wind Variable Wind from NNE
Gusts 14.0 mph

Today
High -- | Low -- °F
--% Chance of Precip.
Yesterday
High -- | Low -- °F
Precip. -- in
Pressure 30.13 in
Visibility 7.0 miles
Clouds Scattered Clouds 1500 ft
Heat Index 76 °F
Dew Point 64 °F
Humidity 71%
Rainfall 0.00 in
Snow Depth Not available.
7:18 AM 6:45 PM
Waxing Crescent, 38% visible
METAR MMCZ 140554Z 08006KT 7SM SCT015 20/16 A3014 RMK SLP201 57027 953 8/500
Pressure 30.13 in
Visibility 7.0 miles
Clouds Scattered Clouds 1500 ft
Heat Index 76 °F
Dew Point 64 °F
Humidity 71%
Rainfall 0.00 in
Snow Depth Not available.
7:18 AM 6:45 PM
Waxing Crescent, 38% visible
METAR MMCZ 140554Z 08006KT 7SM SCT015 20/16 A3014 RMK SLP201 57027 953 8/500

10-Day Weather Forecast

No radar image for this location.
×

Almanac

Astronomy

Feb. 14, 2016 Rise Set
Actual Time
Civil Twilight
Nautical Twilight
Astronomical Twilight
Moon
Length of Visible Light
Length of Day
Tomorrow will be .
, % of the Moon is Illuminated

Today's Extremes

Country Highs Country Lows

Community

WunderPhotos

Upload Photos

1,892,751 photos uploaded!

WunderBlog® & News

Nearby

Air Quality

  Air Quality AQ Index Pollutant
Not available.

Snow Depth

Station Depth Elevation

Earthquake Activity

City Distance Mag. Time & Date
Minimum magnitude displayed is 2.5.

Coastal Water Temperatures

Place Temperature

Stations

Nearby Weather Stations

Station Location Temp. Windchill Dew Point Humidity Wind Precip. Elev Updated Type